Time;durP1;ratioP1;P1;durP2;ratioP2;P2;SDS_P1;SDS_P2;PMS_P1;PMS_P2;Temp;Humidity;BMP_temperature;BMP_pressure;BME280_temperature;BME280_humidity;BME280_pressure;Samples;Min_cycle;Max_cycle;Signal;HPM_P1;HPM_P2
2022/05/11 00:01:31;;;;;;;9.93;5.53;;;;;;;14.02;69.71;94994.34;4142647;28;20132;-52
2022/05/11 00:03:33;;;;;;;12.10;5.53;;;;;;;13.38;70.56;94997.06;4142550;28;20459;-53
2022/05/11 00:05:35;;;;;;;8.82;5.20;;;;;;;13.17;71.38;94994.97;4142601;28;20132;-52
2022/05/11 00:07:36;;;;;;;9.65;5.22;;;;;;;13.29;71.80;94991.03;4142670;28;20062;-53
2022/05/11 00:09:38;;;;;;;10.73;4.90;;;;;;;13.22;71.48;94997.91;4156297;28;20068;-54
2022/05/11 00:11:40;;;;;;;7.20;4.50;;;;;;;13.01;71.43;95001.06;4157748;28;20073;-55
2022/05/11 00:13:42;;;;;;;8.73;5.28;;;;;;;12.94;71.72;95003.53;4145880;28;20085;-53
2022/05/11 00:15:43;;;;;;;9.98;5.75;;;;;;;12.77;71.60;94994.84;4144405;28;20112;-53
2022/05/11 00:17:45;;;;;;;7.47;5.38;;;;;;;12.98;72.47;94990.91;4145927;28;20062;-54
2022/05/11 00:19:47;;;;;;;7.35;5.20;;;;;;;13.21;71.25;94986.59;4143688;28;20096;-53
2022/05/11 00:21:48;;;;;;;11.48;5.22;;;;;;;13.44;71.01;94981.47;4145700;28;20072;-55
2022/05/11 00:23:52;;;;;;;8.95;5.38;;;;;;;13.62;70.98;94977.78;4144155;28;20053;-52
2022/05/11 00:25:53;;;;;;;6.43;4.63;;;;;;;13.73;69.71;94980.03;4145545;28;20061;-54
2022/05/11 00:27:58;;;;;;;8.45;4.78;;;;;;;13.85;68.68;94976.03;4145458;28;20119;-53
2022/05/11 00:29:59;;;;;;;6.50;4.38;;;;;;;13.98;67.59;94969.34;4145568;28;20069;-55
2022/05/11 00:32:01;;;;;;;6.70;4.85;;;;;;;14.02;66.91;94968.81;4145465;28;20053;-54
2022/05/11 00:34:03;;;;;;;7.30;4.38;;;;;;;14.07;66.18;94963.88;4145208;28;20185;-53
2022/05/11 00:36:10;;;;;;;6.00;4.38;;;;;;;14.17;66.93;94965.47;4145523;28;20084;-53
2022/05/11 00:38:13;;;;;;;11.30;4.65;;;;;;;14.16;67.07;94959.38;4144050;28;20371;-57
2022/05/11 00:40:16;;;;;;;9.48;4.93;;;;;;;14.06;67.59;94958.78;4145559;28;20595;-55
2022/05/11 00:42:18;;;;;;;7.75;5.03;;;;;;;13.89;67.72;94958.03;4145261;28;20133;-55
2022/05/11 00:44:20;;;;;;;7.78;4.80;;;;;;;13.77;67.81;94955.00;4143728;28;20121;-55
2022/05/11 00:46:42;;;;;;;6.93;4.57;;;;;;;13.86;67.72;94959.22;4144736;28;20280;-54
2022/05/11 00:51:05;;;;;;;6.15;5.00;;;;;;;13.90;67.70;94955.25;4143682;28;20132;-53
2022/05/11 00:53:11;;;;;;;7.93;4.90;;;;;;;13.87;67.85;94962.66;4143415;28;20132;-56
2022/05/11 00:55:34;;;;;;;9.40;5.53;;;;;;;13.77;68.49;94962.91;4132625;28;20061;-55
2022/05/11 00:57:42;;;;;;;7.18;4.60;;;;;;;13.77;69.17;94959.44;4143806;28;20058;-54
2022/05/11 00:59:46;;;;;;;8.70;5.25;;;;;;;13.86;68.81;94966.31;4145194;28;20527;-53
2022/05/11 01:01:48;;;;;;;6.00;4.57;;;;;;;13.94;68.01;94968.91;4160115;28;20050;-53
2022/05/11 01:03:53;;;;;;;8.30;5.55;;;;;;;14.03;67.58;94969.69;4159242;28;20104;-53
2022/05/11 01:05:55;;;;;;;7.57;4.95;;;;;;;13.95;68.18;94972.34;4143230;28;20104;-55
2022/05/11 01:07:57;;;;;;;7.78;5.00;;;;;;;13.52;68.42;94978.78;4144091;28;20440;-54
2022/05/11 01:09:59;;;;;;;6.65;4.68;;;;;;;13.37;68.73;94977.84;4144711;28;20046;-54
2022/05/11 01:12:02;;;;;;;9.63;5.13;;;;;;;13.34;69.43;94972.94;4144955;28;20123;-56
2022/05/11 01:14:04;;;;;;;6.70;4.47;;;;;;;13.44;69.92;94977.97;4143259;28;20050;-53
2022/05/11 01:16:06;;;;;;;9.25;5.35;;;;;;;13.50;69.84;94983.38;4144899;28;20494;-55
2022/05/11 01:18:09;;;;;;;8.75;5.57;;;;;;;13.55;69.80;94982.06;4142860;28;20060;-53
2022/05/11 01:20:16;;;;;;;9.57;5.05;;;;;;;13.60;70.09;94985.84;4146465;28;20418;-55
2022/05/11 01:22:28;;;;;;;8.65;5.20;;;;;;;13.69;69.84;94984.81;4149264;28;20135;-54
2022/05/11 01:24:36;;;;;;;7.07;5.03;;;;;;;13.70;68.89;94985.63;4141791;28;20231;-55
2022/05/11 01:26:37;;;;;;;6.80;4.80;;;;;;;13.73;68.35;94970.31;4143494;28;20046;-53
2022/05/11 01:28:41;;;;;;;11.93;5.20;;;;;;;13.79;67.96;94973.22;4143318;28;20119;-53
2022/05/11 01:30:51;;;;;;;7.47;4.75;;;;;;;13.82;69.00;94973.72;4144854;28;20049;-55
2022/05/11 01:32:55;;;;;;;9.15;5.15;;;;;;;13.85;69.10;94973.38;4138441;28;20058;-53
2022/05/11 01:34:59;;;;;;;;;;;;;;;13.89;68.82;94963.31;4145546;28;20049;-54
2022/05/11 01:37:00;;;;;;;7.57;4.97;;;;;;;13.88;68.04;94962.50;4142953;28;19928;-54
2022/05/11 01:39:07;;;;;;;8.35;4.82;;;;;;;13.92;68.46;94965.63;4142871;28;20084;-54
2022/05/11 01:41:13;;;;;;;8.32;5.25;;;;;;;13.93;68.68;94969.88;4144248;28;20557;-56
2022/05/11 01:43:23;;;;;;;6.65;4.45;;;;;;;13.98;68.36;94972.84;4142992;28;20072;-55
2022/05/11 01:45:25;;;;;;;7.15;4.97;;;;;;;14.00;67.68;94970.81;4143808;28;20049;-54
2022/05/11 01:47:27;;;;;;;7.07;4.88;;;;;;;13.97;67.51;94962.47;4143732;28;20054;-55
2022/05/11 01:49:30;;;;;;;6.50;4.47;;;;;;;13.93;67.96;94968.06;4128584;28;20582;-55
2022/05/11 01:51:32;;;;;;;7.45;5.05;;;;;;;13.67;68.30;94965.72;4128675;28;20061;-54
2022/05/11 01:53:34;;;;;;;6.05;5.18;;;;;;;13.19;69.10;94971.97;4126762;28;20466;-54
2022/05/11 01:55:36;;;;;;;6.93;4.95;;;;;;;12.56;70.80;94979.59;4139488;28;20048;-55
2022/05/11 01:57:37;;;;;;;6.25;4.95;;;;;;;12.17;72.03;94980.19;4143775;28;20151;-53
2022/05/11 01:59:39;;;;;;;6.47;4.65;;;;;;;12.17;72.42;94972.31;4143933;28;20081;-52
2022/05/11 02:01:41;;;;;;;6.88;5.05;;;;;;;12.25;71.90;94974.97;4143905;28;20479;-54
2022/05/11 02:03:43;;;;;;;8.93;4.50;;;;;;;12.43;71.61;94972.19;4143669;28;20137;-53
2022/05/11 02:08:07;;;;;;;6.90;4.22;;;;;;;12.83;69.02;94969.72;4141148;28;20065;-54
2022/05/11 02:10:08;;;;;;;6.25;4.45;;;;;;;12.91;68.64;94973.16;4142403;28;20498;-54
2022/05/11 02:12:11;;;;;;;6.15;4.18;;;;;;;13.05;67.66;94971.63;4143757;28;20119;-54
2022/05/11 02:14:12;;;;;;;7.68;4.38;;;;;;;13.13;67.33;94976.06;4143777;28;20453;-53
2022/05/11 02:16:16;;;;;;;6.05;3.80;;;;;;;13.18;66.76;94972.94;4141910;28;20053;-53
2022/05/11 02:18:18;;;;;;;9.30;4.40;;;;;;;13.28;66.33;94976.22;4143720;28;20073;-54
2022/05/11 02:20:20;;;;;;;8.50;4.28;;;;;;;13.35;65.82;94976.38;4142070;28;20088;-53
2022/05/11 02:22:22;;;;;;;4.63;3.58;;;;;;;13.40;65.95;94974.88;4142057;28;20120;-53
2022/05/11 02:24:24;;;;;;;5.70;3.92;;;;;;;13.45;65.34;94967.28;4125735;28;20629;-55
2022/05/11 02:26:26;;;;;;;7.45;4.20;;;;;;;13.45;64.96;94967.28;4127571;28;20054;-50
2022/05/11 02:28:28;;;;;;;8.18;3.97;;;;;;;13.48;64.74;94972.22;4111419;28;20325;-49
2022/05/11 02:30:37;;;;;;;5.32;4.22;;;;;;;13.49;64.85;94965.16;4143465;28;20092;-54
2022/05/11 02:32:39;;;;;;;8.53;4.40;;;;;;;13.50;65.39;94958.88;4143515;28;20273;-51
2022/05/11 02:37:01;;;;;;;6.03;3.90;;;;;;;13.58;66.22;94958.03;4143738;28;20081;-50
2022/05/11 02:39:03;;;;;;;8.02;4.15;;;;;;;13.58;65.41;94956.22;4140288;28;20049;-57
2022/05/11 02:41:05;;;;;;;8.35;4.03;;;;;;;13.58;65.87;94958.03;4143420;28;20076;-54
2022/05/11 02:43:11;;;;;;;9.60;4.53;;;;;;;13.57;66.09;94957.19;4143402;28;20570;-53
2022/05/11 02:45:14;;;;;;;8.07;4.03;;;;;;;13.57;65.51;94961.66;4143352;28;20146;-53
2022/05/11 02:47:16;;;;;;;9.10;4.40;;;;;;;13.59;65.22;94959.66;4143489;28;20100;-54
2022/05/11 02:49:18;;;;;;;6.85;4.35;;;;;;;13.64;64.94;94971.34;4128524;28;20328;-54
2022/05/11 02:51:19;;;;;;;7.65;4.18;;;;;;;13.64;64.58;94970.53;4127124;28;20500;-55
2022/05/11 02:53:22;;;;;;;5.90;4.15;;;;;;;13.65;64.76;94965.06;4125535;28;20130;-55
2022/05/11 02:55:24;;;;;;;7.35;3.85;;;;;;;13.62;65.15;94968.06;4135709;28;20132;-55
2022/05/11 02:57:27;;;;;;;7.63;4.13;;;;;;;13.63;65.06;94974.94;4141750;28;20422;-55
2022/05/11 02:59:28;;;;;;;14.18;5.00;;;;;;;13.62;64.89;94975.13;4157984;28;20057;-55
2022/05/11 03:01:30;;;;;;;7.03;4.25;;;;;;;13.65;64.78;94974.78;4143414;28;20053;-54
2022/05/11 03:03:35;;;;;;;16.05;4.90;;;;;;;13.64;64.55;94973.16;4142805;28;20596;-50
2022/05/11 03:05:37;;;;;;;7.13;4.53;;;;;;;13.67;64.85;94975.44;4143277;28;20104;-54
2022/05/11 03:07:40;;;;;;;6.32;3.92;;;;;;;13.68;64.58;94977.91;4143306;28;20084;-53
2022/05/11 03:09:41;;;;;;;6.43;4.00;;;;;;;13.68;64.32;94982.31;4140234;28;20057;-55
2022/05/11 03:11:45;;;;;;;7.35;4.35;;;;;;;13.71;64.08;94984.63;4143032;28;20052;-53
2022/05/11 03:13:47;;;;;;;7.75;5.32;;;;;;;13.66;64.78;94990.41;4141479;28;20502;-53
2022/05/11 03:15:49;;;;;;;8.85;4.45;;;;;;;13.61;65.87;94987.47;4142779;28;20107;-53
2022/05/11 03:17:51;;;;;;;7.90;5.23;;;;;;;13.66;65.95;94992.25;4142850;28;20062;-54
2022/05/11 03:19:53;;;;;;;12.07;4.55;;;;;;;13.67;65.72;94988.59;4141569;28;20537;-55
2022/05/11 03:21:55;;;;;;;9.23;4.90;;;;;;;13.62;65.59;94993.56;4142922;28;20099;-57
2022/05/11 03:23:57;;;;;;;18.02;6.07;;;;;;;13.62;65.84;94990.94;4140197;28;20065;-56
2022/05/11 03:25:59;;;;;;;6.85;4.60;;;;;;;13.61;66.62;94994.53;4142974;28;20046;-53
2022/05/11 03:28:01;;;;;;;7.95;4.82;;;;;;;13.64;66.79;94991.59;4141166;28;20561;-54
2022/05/11 03:30:04;;;;;;;8.18;4.63;;;;;;;13.62;66.32;94990.94;4143193;28;20104;-51
2022/05/11 03:34:39;;;;;;;12.23;5.95;;;;;;;13.67;66.95;94996.50;4142823;28;20057;-56
2022/05/11 03:36:40;;;;;;;9.88;4.90;;;;;;;13.59;66.41;94993.91;4156372;28;20406;-55
2022/05/11 03:38:42;;;;;;;11.68;5.38;;;;;;;13.57;66.59;94990.59;4141470;28;20123;-57
2022/05/11 03:40:44;;;;;;;8.50;5.00;;;;;;;13.20;67.50;94992.81;4142804;28;20491;-53
2022/05/11 03:42:46;;;;;;;9.73;4.78;;;;;;;13.19;68.13;94998.25;4142638;28;20045;-57
2022/05/11 03:44:48;;;;;;;7.40;4.97;;;;;;;13.20;67.75;95000.72;4142998;28;20470;-51
2022/05/11 03:46:50;;;;;;;8.65;5.43;;;;;;;13.08;66.99;95000.25;4142145;28;20070;-52
2022/05/11 03:48:51;;;;;;;13.90;5.55;;;;;;;13.00;67.09;94999.44;4123918;28;20590;-56
2022/05/11 03:50:55;;;;;;;6.97;4.85;;;;;;;13.05;67.52;95000.56;4142391;28;20128;-54
2022/05/11 03:52:57;;;;;;;8.00;4.72;;;;;;;13.13;67.49;95001.56;4141412;28;20046;-56
2022/05/11 03:54:58;;;;;;;7.70;5.07;;;;;;;13.23;67.05;95002.22;4150566;28;20045;-54
2022/05/11 03:57:00;;;;;;;9.35;4.95;;;;;;;13.32;66.24;94998.59;4148550;28;20092;-54
2022/05/11 03:59:02;;;;;;;8.18;4.55;;;;;;;13.38;65.82;95004.97;4138395;28;20053;-53
2022/05/11 04:01:04;;;;;;;8.93;4.82;;;;;;;13.47;64.92;95004.78;4142737;28;20076;-54
2022/05/11 04:03:05;;;;;;;7.45;4.40;;;;;;;13.58;64.63;95005.44;4142380;28;20100;-54
2022/05/11 04:05:09;;;;;;;8.75;4.28;;;;;;;13.31;65.16;95012.72;4141340;28;20061;-55
2022/05/11 04:07:12;;;;;;;10.13;4.47;;;;;;;13.35;64.87;95015.84;4141760;28;20063;-52
2022/05/11 04:09:14;;;;;;;8.18;4.95;;;;;;;13.47;64.19;95004.78;4141079;28;20184;-54
2022/05/11 04:11:16;;;;;;;8.50;4.47;;;;;;;13.61;63.70;95012.97;4142503;28;20115;-56
2022/05/11 04:13:18;;;;;;;10.18;5.60;;;;;;;13.70;63.29;95011.94;4142546;28;20103;-54
2022/05/11 04:15:19;;;;;;;9.13;5.47;;;;;;;13.78;63.28;95011.91;4142635;28;20431;-57
2022/05/11 04:17:21;;;;;;;8.05;5.20;;;;;;;13.85;62.92;95012.91;4142731;28;20124;-56
2022/05/11 04:19:23;;;;;;;9.23;5.65;;;;;;;13.93;63.20;95014.66;4142116;28;20053;-58
2022/05/11 04:21:26;;;;;;;9.25;5.72;;;;;;;13.99;62.95;95024.50;4142408;28;20268;-53
2022/05/11 04:23:27;;;;;;;14.05;5.70;;;;;;;14.08;62.98;95023.47;4140936;28;20050;-56
2022/05/11 04:25:29;;;;;;;9.80;5.47;;;;;;;14.15;62.87;95028.84;4142619;28;20564;-52
2022/05/11 04:27:33;;;;;;;11.90;5.55;;;;;;;13.83;63.65;95035.94;4142330;28;20049;-53
2022/05/11 04:29:35;;;;;;;11.52;5.75;;;;;;;13.77;63.89;95033.97;4142582;28;20050;-57
2022/05/11 04:31:37;;;;;;;10.50;5.43;;;;;;;13.68;63.84;95042.88;4142173;28;20046;-53
2022/05/11 04:33:40;;;;;;;9.98;5.25;;;;;;;13.60;63.14;95042.94;4142029;28;20396;-54
2022/05/11 04:35:41;;;;;;;12.13;5.97;;;;;;;13.58;63.93;95047.53;4142345;28;20077;-54
2022/05/11 04:37:44;;;;;;;9.55;5.68;;;;;;;13.78;63.59;95037.44;4142254;28;20050;-52
2022/05/11 04:39:45;;;;;;;8.50;4.82;;;;;;;13.99;62.95;95042.13;4141086;28;20111;-52
2022/05/11 04:41:47;;;;;;;8.88;5.60;;;;;;;14.16;61.79;95037.59;4141666;28;20111;-52
2022/05/11 04:43:49;;;;;;;6.88;4.93;;;;;;;14.30;61.78;95047.38;4142031;28;20050;-52
2022/05/11 04:45:51;;;;;;;9.23;4.80;;;;;;;14.46;61.50;95052.56;4142161;28;20046;-53
2022/05/11 04:47:52;;;;;;;8.23;5.35;;;;;;;14.64;61.50;95046.22;4139230;28;20098;-53
2022/05/11 04:49:54;;;;;;;9.45;5.15;;;;;;;14.71;61.30;95045.38;4125818;28;20054;-53
2022/05/11 04:52:07;;;;;;;9.02;5.85;;;;;;;14.81;60.96;95046.94;4125810;28;20109;-51
2022/05/11 04:54:09;;;;;;;6.67;5.10;;;;;;;14.93;61.01;95048.97;4126379;28;20117;-56
2022/05/11 04:56:11;;;;;;;7.28;6.07;;;;;;;14.99;60.30;95047.44;4141798;28;20116;-52
2022/05/11 04:58:13;;;;;;;8.07;5.18;;;;;;;15.05;60.48;95040.63;4138617;28;20112;-53
2022/05/11 05:00:15;;;;;;;7.78;5.53;;;;;;;15.12;60.83;95049.47;4144237;28;20049;-54
2022/05/11 05:02:22;;;;;;;12.02;6.50;;;;;;;15.09;60.01;95044.56;4145040;28;20663;-56
2022/05/11 05:04:24;;;;;;;8.52;6.07;;;;;;;15.02;59.96;95052.38;4160883;28;20490;-52
2022/05/11 05:06:27;;;;;;;9.55;6.90;;;;;;;14.97;60.60;95053.88;4161224;28;20050;-52
2022/05/11 05:08:29;;;;;;;;;;;;;;;15.01;61.11;95060.47;4160201;28;20483;-53
2022/05/11 05:10:31;;;;;;;11.07;6.38;;;;;;;15.07;60.85;95059.75;4160905;28;19982;-54
2022/05/11 05:12:32;;;;;;;9.50;5.85;;;;;;;15.10;60.54;95052.31;4161246;28;20057;-54
2022/05/11 05:14:34;;;;;;;9.00;5.40;;;;;;;15.23;59.46;95056.13;4161026;28;20053;-56
2022/05/11 05:16:36;;;;;;;7.57;5.68;;;;;;;15.26;59.33;95047.88;4160872;28;20135;-58
2022/05/11 05:18:38;;;;;;;15.00;6.38;;;;;;;15.26;59.88;95055.78;4160839;28;20508;-55
2022/05/11 05:20:39;;;;;;;10.52;5.75;;;;;;;15.19;59.28;95054.88;4160844;28;20049;-55
2022/05/11 05:22:41;;;;;;;7.30;5.35;;;;;;;15.17;59.73;95057.69;4145130;28;20053;-54
2022/05/11 05:24:43;;;;;;;9.65;5.80;;;;;;;15.24;59.84;95057.78;4142489;28;20061;-50
2022/05/11 05:26:45;;;;;;;10.52;6.20;;;;;;;15.21;59.03;95058.97;4144393;28;20112;-55
2022/05/11 05:31:11;;;;;;;11.02;6.05;;;;;;;14.78;59.81;95061.31;4144145;28;20057;-54
2022/05/11 05:33:13;;;;;;;7.53;6.07;;;;;;;14.81;60.19;95068.03;4144096;28;20054;-52
2022/05/11 05:35:17;;;;;;;10.68;6.70;;;;;;;14.94;59.77;95069.06;4144161;28;20053;-56
2022/05/11 05:37:18;;;;;;;;;;;;;;;15.07;59.33;95076.41;4144262;28;20049;-53
2022/05/11 05:39:20;;;;;;;11.07;5.70;;;;;;;15.07;59.38;95072.94;4142317;28;20160;-56
2022/05/11 05:41:22;;;;;;;8.75;5.05;;;;;;;14.44;59.33;95077.47;4143670;28;20054;-54
2022/05/11 05:43:24;;;;;;;9.43;5.07;;;;;;;14.00;61.49;95075.38;4143758;28;20512;-54
2022/05/11 05:45:26;;;;;;;11.18;5.45;;;;;;;13.90;62.05;95081.66;4144030;28;20057;-56
2022/05/11 05:47:27;;;;;;;9.15;5.75;;;;;;;14.16;61.94;95085.03;4143859;28;20546;-56
2022/05/11 05:49:30;;;;;;;10.85;6.13;;;;;;;14.48;61.30;95081.41;4127861;28;20455;-56
2022/05/11 05:51:32;;;;;;;10.63;6.45;;;;;;;14.76;60.83;95086.22;4126220;28;20337;-52
2022/05/11 05:53:34;;;;;;;10.23;6.05;;;;;;;14.61;60.75;95089.59;4125644;28;20046;-53
2022/05/11 05:55:36;;;;;;;13.13;7.07;;;;;;;14.68;61.28;95093.16;4140721;28;20054;-54
2022/05/11 05:57:38;;;;;;;10.57;7.50;;;;;;;14.56;61.51;95091.91;4142525;28;20111;-56
2022/05/11 05:59:39;;;;;;;12.18;6.80;;;;;;;14.80;61.44;95092.75;4142481;28;20564;-53
2022/05/11 06:01:41;;;;;;;9.35;6.57;;;;;;;14.97;60.72;95091.66;4140293;28;20116;-56
2022/05/11 06:03:44;;;;;;;11.13;6.47;;;;;;;15.06;60.64;95095.88;4157981;28;20059;-54
2022/05/11 06:05:46;;;;;;;8.57;6.20;;;;;;;15.29;60.26;95101.13;4144293;28;20487;-53
2022/05/11 06:07:47;;;;;;;9.77;6.03;;;;;;;15.26;59.33;95101.47;4143108;28;20049;-52
2022/05/11 06:09:50;;;;;;;9.02;6.50;;;;;;;15.37;59.50;95094.94;4140934;28;20271;-55
2022/05/11 06:11:52;;;;;;;8.80;5.88;;;;;;;15.49;58.75;95092.72;4143489;28;20156;-55
2022/05/11 06:13:54;;;;;;;10.38;6.13;;;;;;;15.67;58.50;95102.94;4143625;28;20062;-57
2022/05/11 06:15:56;;;;;;;12.35;6.07;;;;;;;15.40;58.10;95109.59;4143245;28;20120;-56
2022/05/11 06:17:58;;;;;;;12.40;6.10;;;;;;;15.50;58.03;95094.34;4143054;28;20049;-57
2022/05/11 06:19:59;;;;;;;12.65;5.65;;;;;;;15.75;58.16;95108.16;4143460;28;20061;-58
2022/05/11 06:22:01;;;;;;;8.73;5.75;;;;;;;15.71;56.74;95106.84;4143384;28;20092;-55
2022/05/11 06:24:03;;;;;;;9.23;5.43;;;;;;;15.77;56.44;95106.16;4141679;28;20053;-54
2022/05/11 06:26:05;;;;;;;9.43;5.65;;;;;;;15.89;56.90;95109.97;4143343;28;20053;-56
2022/05/11 06:28:07;;;;;;;12.98;6.43;;;;;;;15.83;57.37;95105.44;4143475;28;20127;-53
2022/05/11 06:30:09;;;;;;;9.73;6.75;;;;;;;15.75;56.93;95105.53;4143699;28;20101;-56
2022/05/11 06:32:11;;;;;;;10.73;6.50;;;;;;;15.81;57.03;95106.59;4143494;28;20090;-54
2022/05/11 06:34:15;;;;;;;13.93;7.35;;;;;;;15.92;56.63;95106.19;4142848;28;20073;-53
2022/05/11 06:36:17;;;;;;;17.38;7.47;;;;;;;15.81;57.08;95103.97;4143203;28;20589;-54
2022/05/11 06:38:19;;;;;;;13.18;7.68;;;;;;;15.73;57.79;95105.69;4141710;28;20112;-54
2022/05/11 06:40:21;;;;;;;15.48;7.85;;;;;;;15.88;57.85;95105.72;4143407;28;20135;-52
2022/05/11 06:42:24;;;;;;;10.43;6.32;;;;;;;16.02;56.10;95101.41;4143370;28;20076;-54
2022/05/11 06:44:25;;;;;;;6.32;4.57;;;;;;;16.14;54.00;95104.44;4143171;28;20168;-52
2022/05/11 06:46:27;;;;;;;11.30;5.10;;;;;;;16.28;53.08;95103.59;4143535;28;20053;-56
2022/05/11 06:48:29;;;;;;;7.20;4.88;;;;;;;16.49;52.89;95115.22;4135056;28;20178;-54
2022/05/11 06:50:31;;;;;;;9.07;3.97;;;;;;;16.68;52.74;95104.06;4126718;28;20192;-56
2022/05/11 06:52:33;;;;;;;6.15;3.67;;;;;;;16.82;51.20;95106.88;4126752;28;20054;-53
2022/05/11 06:59:34;;;;;;;7.22;4.68;;;;;;;16.71;51.06;95101.06;4142379;28;20046;-52
2022/05/11 07:01:35;;;;;;;6.72;4.30;;;;;;;16.84;50.95;95102.22;4141608;28;20415;-53
2022/05/11 07:03:37;;;;;;;9.05;4.47;;;;;;;16.91;50.70;95103.13;4142377;28;20049;-54
2022/05/11 07:05:40;;;;;;;6.05;3.72;;;;;;;17.15;49.77;95100.09;4142702;28;20054;-54
2022/05/11 07:07:41;;;;;;;7.85;3.80;;;;;;;17.04;48.04;95097.13;4143025;28;20050;-55
2022/05/11 07:09:43;;;;;;;6.05;3.50;;;;;;;17.08;48.43;95104.50;4141468;28;20057;-57
2022/05/11 07:14:08;;;;;;;6.28;3.25;;;;;;;17.49;46.38;95105.69;4142625;28;20459;-56
2022/05/11 07:16:10;;;;;;;4.97;3.13;;;;;;;17.66;46.02;95099.06;4140805;28;20053;-57
2022/05/11 07:18:12;;;;;;;9.32;3.80;;;;;;;17.74;45.45;95098.09;4142071;28;20054;-55
2022/05/11 07:20:33;;;;;;;5.65;2.40;;;;;;;17.89;45.03;95090.06;4142356;28;20472;-54
2022/05/11 07:22:35;;;;;;;10.32;3.35;;;;;;;17.67;41.73;95095.41;4142582;28;20053;-53
2022/05/11 07:24:38;;;;;;;4.50;2.25;;;;;;;17.43;42.35;95086.06;4141340;28;20046;-50
2022/05/11 07:26:40;;;;;;;7.80;3.67;;;;;;;17.31;41.55;95095.53;4142622;28;20071;-54
2022/05/11 07:28:41;;;;;;;6.32;2.55;;;;;;;17.47;43.05;95086.50;4142558;28;20133;-56
2022/05/11 07:30:47;;;;;;;18.08;6.20;;;;;;;17.45;41.75;95083.22;4142563;28;20115;-56
2022/05/11 07:32:49;;;;;;;12.55;5.30;;;;;;;17.66;43.50;95083.19;4142204;28;20149;-51
2022/05/11 07:34:51;;;;;;;5.10;3.20;;;;;;;17.72;44.51;95087.69;4142236;28;20046;-53
2022/05/11 07:36:54;;;;;;;4.85;3.17;;;;;;;17.93;44.83;95083.38;4142594;28;21084;-53
2022/05/11 07:38:56;;;;;;;7.53;3.83;;;;;;;17.88;44.43;95083.16;4141004;28;20053;-51
2022/05/11 07:40:57;;;;;;;5.35;3.05;;;;;;;18.04;45.82;95084.66;4142550;28;20065;-55
2022/05/11 07:43:00;;;;;;;6.60;3.05;;;;;;;18.01;46.14;95081.38;4124821;28;20058;-54
2022/05/11 07:45:03;;;;;;;5.30;3.20;;;;;;;18.29;45.91;95077.84;4142499;28;20050;-56
2022/05/11 07:47:06;;;;;;;5.03;3.47;;;;;;;18.17;45.51;95074.13;4142722;28;20144;-56
2022/05/11 07:49:09;;;;;;;6.28;3.45;;;;;;;18.20;45.70;95071.09;4128801;28;20077;-53
2022/05/11 07:51:10;;;;;;;7.55;3.20;;;;;;;18.43;45.62;95070.75;4126247;28;20104;-54
2022/05/11 07:53:12;;;;;;;4.78;3.17;;;;;;;18.70;45.67;95068.19;4124691;28;20129;-55
2022/05/11 07:55:15;;;;;;;4.95;3.05;;;;;;;18.76;45.26;95070.88;4136834;28;20041;-53
2022/05/11 07:59:52;;;;;;;6.35;3.00;;;;;;;19.11;44.11;95060.13;4142500;28;20060;-52
2022/05/11 08:01:54;;;;;;;7.03;3.78;;;;;;;18.81;45.26;95071.09;4135349;28;20054;-52
2022/05/11 08:03:55;;;;;;;5.65;3.72;;;;;;;18.52;45.37;95071.38;4139251;28;20145;-55
2022/05/11 08:05:57;;;;;;;6.32;3.42;;;;;;;18.04;47.13;95071.41;4142657;28;20621;-56
2022/05/11 08:08:03;;;;;;;7.40;3.60;;;;;;;18.30;47.16;95066.22;4140957;28;20054;-52
2022/05/11 08:10:06;;;;;;;8.50;4.03;;;;;;;18.27;46.53;95063.97;4142425;28;20148;-57
2022/05/11 08:12:08;;;;;;;6.10;3.67;;;;;;;18.34;47.09;95056.84;4142343;28;20113;-54
2022/05/11 08:14:10;;;;;;;5.82;3.60;;;;;;;18.55;46.91;95057.75;4142223;28;20244;-56
2022/05/11 08:16:12;;;;;;;8.30;3.72;;;;;;;18.76;45.88;95062.91;4142219;28;20046;-56
2022/05/11 08:18:15;;;;;;;8.40;3.50;;;;;;;18.75;45.46;95047.97;4141754;28;20057;-57
2022/05/11 08:20:26;;;;;;;6.40;3.55;;;;;;;18.96;45.60;95054.19;4142561;28;20050;-53
2022/05/11 08:22:28;;;;;;;5.53;3.10;;;;;;;19.24;44.10;95056.66;4142308;28;20049;-51
2022/05/11 08:24:31;;;;;;;7.60;3.03;;;;;;;19.38;42.67;95053.00;4140614;28;20069;-52
2022/05/11 08:26:33;;;;;;;4.68;3.15;;;;;;;19.59;42.24;95048.47;4142472;28;20450;-54
2022/05/11 08:28:34;;;;;;;5.75;3.25;;;;;;;19.72;41.93;95051.13;4142375;28;20061;-56
2022/05/11 08:35:37;;;;;;;6.10;3.15;;;;;;;20.02;41.92;95042.69;4145809;28;20053;-55
2022/05/11 08:37:38;;;;;;;4.50;2.75;;;;;;;19.95;42.35;95042.69;4145436;28;20057;-53
2022/05/11 08:39:41;;;;;;;3.80;2.85;;;;;;;20.13;41.44;95043.88;4143766;28;20057;-53
2022/05/11 08:41:51;;;;;;;8.63;3.17;;;;;;;20.29;41.92;95043.41;4145382;28;20803;-55
2022/05/11 08:43:55;;;;;;;5.38;3.10;;;;;;;19.82;41.62;95046.19;4145312;28;20136;-54
2022/05/11 08:46:35;;;;;;;7.32;2.88;;;;;;;19.56;41.37;95043.56;4144103;28;20050;-54
2022/05/11 08:48:45;;;;;;;7.22;2.80;;;;;;;19.67;41.94;95044.78;4150484;28;20050;-53
2022/05/11 08:50:47;;;;;;;6.22;2.75;;;;;;;19.88;41.88;95043.75;4128866;28;20066;-54
2022/05/11 08:52:52;;;;;;;5.68;3.15;;;;;;;20.19;41.91;95038.53;4128952;28;20050;-55
2022/05/11 08:54:58;;;;;;;5.22;3.10;;;;;;;20.50;41.79;95038.81;4135755;28;20049;-55
2022/05/11 08:57:01;;;;;;;3.20;2.25;;;;;;;20.62;40.22;95042.47;4143208;28;20089;-53
2022/05/11 08:59:04;;;;;;;3.47;2.20;;;;;;;20.75;38.67;95042.38;4143346;28;20085;-53
2022/05/11 09:01:09;;;;;;;4.82;2.38;;;;;;;20.94;39.10;95039.81;4143822;28;20050;-56
2022/05/11 09:03:20;;;;;;;5.57;2.30;;;;;;;21.04;37.36;95053.50;4140956;28;20049;-53
2022/05/11 09:05:28;;;;;;;2.35;1.80;;;;;;;20.95;36.89;95044.09;4143352;28;20083;-51
2022/05/11 09:07:36;;;;;;;7.07;2.05;;;;;;;21.12;37.39;95042.53;4145051;28;20111;-53
2022/05/11 09:09:39;;;;;;;4.45;2.10;;;;;;;21.28;37.05;95043.88;4143327;28;20120;-53
2022/05/11 09:11:50;;;;;;;5.80;2.05;;;;;;;21.31;36.85;95045.28;4144743;28;20057;-53
2022/05/11 09:13:52;;;;;;;3.50;2.10;;;;;;;21.02;37.64;95042.22;4143440;28;20062;-54
2022/05/11 09:15:57;;;;;;;4.35;2.33;;;;;;;21.09;38.00;95043.00;4144604;28;20053;-53
2022/05/11 09:18:06;;;;;;;4.25;2.22;;;;;;;21.22;37.20;95039.41;4144356;28;20624;-55
2022/05/11 09:20:15;;;;;;;3.30;2.30;;;;;;;21.38;37.70;95038.03;4144442;28;20107;-55
2022/05/11 09:22:24;;;;;;;7.05;2.10;;;;;;;21.52;37.51;95034.28;4133201;28;20533;-56
2022/05/11 09:24:27;;;;;;;6.68;2.70;;;;;;;21.51;37.82;95043.31;4130566;28;20466;-52
2022/05/11 09:26:32;;;;;;;3.40;2.40;;;;;;;21.65;37.17;95039.47;4144689;28;20421;-54
2022/05/11 09:28:39;;;;;;;4.18;2.42;;;;;;;21.67;37.37;95034.75;4144376;28;20058;-55
2022/05/11 09:30:59;;;;;;;2.53;1.80;;;;;;;21.42;36.57;95040.13;4144305;28;20195;-54
2022/05/11 09:33:22;;;;;;;3.53;2.08;;;;;;;21.55;36.56;95039.16;4144046;28;20100;-53
2022/05/11 09:35:34;;;;;;;7.18;2.35;;;;;;;21.72;36.26;95033.28;4144024;28;20072;-54
2022/05/11 09:37:42;;;;;;;3.58;2.40;;;;;;;21.66;35.73;95026.94;4141724;28;20061;-53
2022/05/11 09:39:53;;;;;;;4.40;2.53;;;;;;;21.53;37.47;95038.59;4142964;28;20410;-57
2022/05/11 09:42:01;;;;;;;5.75;2.33;;;;;;;21.58;35.93;95035.25;4144152;28;20108;-55
2022/05/11 09:44:18;;;;;;;5.85;2.33;;;;;;;21.74;35.60;95028.53;4143583;28;20410;-55
2022/05/11 09:46:33;;;;;;;6.10;2.38;;;;;;;21.87;36.08;95031.06;4144285;28;20127;-53
2022/05/11 09:48:37;;;;;;;4.10;2.15;;;;;;;22.06;36.17;95024.69;4143795;28;20053;-53
2022/05/11 09:50:41;;;;;;;6.90;2.30;;;;;;;22.35;36.32;95024.19;4143475;28;20263;-55
2022/05/11 09:52:44;;;;;;;4.25;2.20;;;;;;;22.22;34.73;95018.00;4143705;28;20080;-55
2022/05/11 09:54:46;;;;;;;3.97;2.20;;;;;;;21.82;35.72;95014.91;4133055;28;20710;-50
2022/05/11 09:57:11;;;;;;;3.88;2.30;;;;;;;21.35;36.28;95022.50;4144130;28;20058;-56
2022/05/11 09:59:27;;;;;;;7.78;3.67;;;;;;;21.30;36.52;95030.34;4143921;28;20076;-54
2022/05/11 10:01:29;;;;;;;5.13;2.50;;;;;;;21.42;36.45;95015.28;4143953;28;20447;-55
2022/05/11 10:03:31;;;;;;;4.00;2.28;;;;;;;21.53;36.90;95022.59;4139622;28;20068;-54
2022/05/11 10:05:39;;;;;;;3.35;2.10;;;;;;;21.89;36.34;95015.66;4147801;28;20137;-54
2022/05/11 10:07:52;;;;;;;3.05;2.25;;;;;;;21.88;35.68;95008.69;4126197;28;20093;-55